Time;durP1;ratioP1;P1;durP2;ratioP2;P2;SDS_P1;SDS_P2;PMS_P1;PMS_P2;Temp;Humidity;BMP_temperature;BMP_pressure;BME280_temperature;BME280_humidity;BME280_pressure;Samples;Min_cycle;Max_cycle;Signal;HPM_P1;HPM_P2
2023/07/19 00:01:23;;;;;;;15.70;7.60;;;26.60;96.70;;;;;;5025883;28;20311;-64
2023/07/19 00:03:49;;;;;;;21.98;9.02;;;26.50;96.50;;;;;;5029259;28;20022;-64
2023/07/19 00:06:14;;;;;;;13.40;8.20;;;26.50;97.70;;;;;;5028448;28;20037;-65
2023/07/19 00:08:40;;;;;;;12.77;7.97;;;26.60;97.30;;;;;;5023722;28;20792;-64
2023/07/19 00:11:06;;;;;;;12.82;7.88;;;26.70;96.90;;;;;;5029145;28;20079;-66
2023/07/19 00:13:31;;;;;;;15.98;7.90;;;26.70;96.20;;;;;;5025598;28;20056;-66
2023/07/19 00:15:57;;;;;;;18.50;8.60;;;26.70;96.90;;;;;;5021664;28;20029;-65
2023/07/19 00:18:23;;;;;;;12.82;7.80;;;26.40;96.70;;;;;;5029563;28;20361;-65
2023/07/19 00:20:49;;;;;;;13.90;7.78;;;26.40;97.50;;;;;;5027924;28;20497;-65
2023/07/19 00:23:15;;;;;;;16.65;7.40;;;26.40;98.20;;;;;;5029052;28;20099;-65
2023/07/19 00:25:40;;;;;;;21.83;8.00;;;26.30;98.10;;;;;;5028740;28;20064;-65
2023/07/19 00:28:06;;;;;;;13.80;7.80;;;26.20;97.80;;;;;;5029220;28;20029;-65
2023/07/19 00:30:32;;;;;;;18.50;7.80;;;26.20;98.40;;;;;;5029376;28;20029;-65
2023/07/19 00:32:57;;;;;;;16.42;7.78;;;26.20;98.10;;;;;;5023729;28;20049;-69
2023/07/19 00:35:23;;;;;;;20.55;8.80;;;26.20;98.00;;;;;;5029994;28;20068;-65
2023/07/19 00:37:48;;;;;;;14.85;8.63;;;26.20;98.30;;;;;;5028646;28;20441;-64
2023/07/19 00:40:14;;;;;;;13.90;7.70;;;26.10;99.70;;;;;;5028803;28;20038;-64
2023/07/19 00:42:40;;;;;;;24.10;8.23;;;26.10;99.30;;;;;;5028086;28;20033;-66
2023/07/19 00:45:06;;;;;;;13.23;8.18;;;26.00;99.90;;;;;;5027783;28;20045;-65
2023/07/19 00:47:33;;;;;;;14.50;7.68;;;26.00;99.90;;;;;;5030113;28;20029;-64
2023/07/19 00:49:59;;;;;;;14.50;7.88;;;25.90;99.90;;;;;;5025432;28;20029;-65
2023/07/19 00:52:25;;;;;;;18.95;8.30;;;25.90;99.90;;;;;;5029826;28;20091;-65
2023/07/19 00:54:50;;;;;;;15.98;7.90;;;25.80;99.90;;;;;;5024589;28;20033;-64
2023/07/19 00:57:16;;;;;;;9.70;7.78;;;25.80;99.90;;;;;;5028051;28;20076;-65
2023/07/19 00:59:42;;;;;;;12.38;7.72;;;25.70;99.90;;;;;;5028310;28;20120;-65
2023/07/19 01:02:08;;;;;;;15.25;8.10;;;25.70;99.90;;;;;;5025262;28;20044;-64
2023/07/19 01:04:34;;;;;;;11.48;8.63;;;25.60;99.90;;;;;;5028422;28;20025;-64
2023/07/19 01:07:03;;;;;;;13.43;8.48;;;25.60;99.90;;;;;;5026253;28;20493;-64
2023/07/19 01:09:29;;;;;;;15.52;8.48;;;25.60;99.90;;;;;;5023160;28;20028;-65
2023/07/19 01:11:55;;;;;;;20.80;8.88;;;25.60;99.90;;;;;;5026925;28;20036;-65
2023/07/19 01:14:20;;;;;;;12.80;8.40;;;25.50;99.90;;;;;;5028053;28;20021;-64
2023/07/19 01:16:46;;;;;;;18.70;8.57;;;25.50;99.90;;;;;;5028767;28;20288;-64
2023/07/19 01:19:15;;;;;;;19.60;8.53;;;25.50;99.90;;;;;;5027187;28;20030;-64
2023/07/19 01:21:40;;;;;;;12.23;7.88;;;25.40;99.90;;;;;;5025033;28;20300;-65
2023/07/19 01:24:06;;;;;;;15.30;7.57;;;25.40;99.90;;;;;;5025694;28;20041;-64
2023/07/19 01:26:31;;;;;;;15.65;8.23;;;25.40;99.90;;;;;;5027453;28;20288;-66
2023/07/19 01:28:57;;;;;;;16.23;8.30;;;25.40;99.90;;;;;;5023517;28;20063;-66
2023/07/19 01:31:23;;;;;;;16.45;8.60;;;25.40;99.90;;;;;;5027789;28;20378;-64
2023/07/19 01:33:49;;;;;;;16.40;8.17;;;25.30;99.90;;;;;;5027423;28;20397;-64
2023/07/19 01:36:14;;;;;;;12.57;8.17;;;25.30;99.90;;;;;;5025807;28;20289;-66
2023/07/19 01:38:41;;;;;;;13.83;7.90;;;25.30;99.90;;;;;;5025241;28;20120;-65
2023/07/19 01:41:07;;;;;;;17.52;8.30;;;25.20;99.90;;;;;;5027110;28;20559;-64
2023/07/19 01:43:32;;;;;;;11.73;8.88;;;25.10;99.90;;;;;;5027200;28;20030;-64
2023/07/19 01:45:59;;;;;;;12.70;7.65;;;25.10;99.90;;;;;;5025727;28;20095;-66
2023/07/19 01:48:24;;;;;;;;;;;25.10;99.90;;;;;;5030207;28;20098;-65
2023/07/19 01:50:50;;;;;;;11.77;7.57;;;25.00;99.90;;;;;;5027342;28;20365;-65
2023/07/19 01:53:15;;;;;;;13.37;7.80;;;25.00;99.90;;;;;;5028709;28;20555;-65
2023/07/19 01:55:42;;;;;;;9.30;7.03;;;25.20;99.90;;;;;;5028841;28;20022;-66
2023/07/19 01:58:11;;;;;;;19.77;7.18;;;25.30;99.90;;;;;;5025951;28;20971;-65
2023/07/19 02:00:37;;;;;;;13.68;6.55;;;25.40;99.90;;;;;;5021892;28;20029;-64
2023/07/19 02:03:03;;;;;;;13.48;7.35;;;25.60;98.90;;;;;;5025652;28;20971;-64
2023/07/19 02:05:29;;;;;;;13.45;7.20;;;25.60;98.20;;;;;;5027433;28;20025;-65
2023/07/19 02:07:54;;;;;;;13.45;6.32;;;25.70;97.20;;;;;;5027271;28;20056;-66
2023/07/19 02:10:20;;;;;;;9.90;6.03;;;25.70;96.90;;;;;;5026263;28;20026;-65
2023/07/19 02:12:46;;;;;;;6.30;5.50;;;25.70;96.40;;;;;;5027508;28;20710;-65
2023/07/19 02:15:11;;;;;;;14.33;6.53;;;25.60;97.10;;;;;;5025993;28;20037;-65
2023/07/19 02:17:37;;;;;;;8.63;5.60;;;25.40;97.50;;;;;;5025895;28;20032;-65
2023/07/19 02:20:03;;;;;;;11.07;6.13;;;25.40;97.70;;;;;;5025374;28;20284;-64
2023/07/19 02:22:29;;;;;;;8.50;5.63;;;25.20;98.10;;;;;;5024128;28;20038;-65
2023/07/19 02:24:55;;;;;;;13.33;7.03;;;25.30;98.40;;;;;;5023039;28;20030;-65
2023/07/19 02:27:22;;;;;;;10.77;6.40;;;25.20;98.00;;;;;;5027272;28;20335;-67
2023/07/19 02:29:48;;;;;;;11.95;6.57;;;25.30;98.00;;;;;;5026898;28;20025;-65
2023/07/19 02:32:13;;;;;;;8.80;5.30;;;25.40;95.60;;;;;;5024971;28;20107;-66
2023/07/19 02:34:39;;;;;;;10.10;5.73;;;25.40;94.80;;;;;;5027029;28;20279;-66
2023/07/19 02:37:05;;;;;;;10.87;6.03;;;25.40;95.00;;;;;;5024189;28;20100;-65
2023/07/19 02:39:30;;;;;;;12.25;5.78;;;25.40;95.30;;;;;;5028724;28;20446;-68
2023/07/19 02:41:57;;;;;;;10.97;5.73;;;25.40;96.40;;;;;;5030643;28;20045;-65
2023/07/19 02:44:23;;;;;;;12.88;5.55;;;25.40;95.90;;;;;;5030221;28;20029;-65
2023/07/19 02:46:49;;;;;;;9.30;5.32;;;25.40;95.50;;;;;;5032817;28;20033;-65
2023/07/19 02:49:14;;;;;;;11.00;5.55;;;25.40;95.00;;;;;;5030210;28;20037;-65
2023/07/19 02:51:40;;;;;;;11.10;4.93;;;25.40;95.00;;;;;;5030647;28;20497;-66
2023/07/19 02:54:06;;;;;;;7.87;5.00;;;25.40;94.10;;;;;;5029660;28;20485;-65
2023/07/19 02:56:31;;;;;;;9.53;5.70;;;25.40;95.40;;;;;;5030831;28;20064;-65
2023/07/19 02:58:57;;;;;;;9.43;5.82;;;25.40;93.90;;;;;;5028173;28;20017;-67
2023/07/19 03:01:22;;;;;;;11.77;5.50;;;25.50;93.80;;;;;;5029142;28;20476;-66
2023/07/19 03:03:49;;;;;;;14.13;5.53;;;25.60;94.10;;;;;;5030502;28;20280;-66
2023/07/19 03:06:14;;;;;;;;;;;25.50;95.70;;;;;;5028924;28;20299;-65
2023/07/19 03:08:40;;;;;;;10.80;6.30;;;25.30;94.40;;;;;;5028737;28;20750;-65
2023/07/19 03:11:08;;;;;;;13.23;5.63;;;25.10;95.20;;;;;;5031404;28;20030;-67
2023/07/19 03:13:34;;;;;;;12.05;5.45;;;25.00;97.10;;;;;;5031127;28;20045;-64
2023/07/19 03:16:00;;;;;;;9.65;5.57;;;24.80;96.00;;;;;;5025997;28;20026;-65
2023/07/19 03:18:25;;;;;;;8.80;5.63;;;24.80;97.00;;;;;;5031481;28;20029;-65
2023/07/19 03:21:00;;;;;;;8.85;4.88;;;24.80;97.60;;;;;;5028066;28;20033;-64
2023/07/19 03:23:27;;;;;;;8.95;5.20;;;24.80;98.70;;;;;;5024527;28;20973;-65
2023/07/19 03:25:57;;;;;;;8.20;5.22;;;24.80;97.80;;;;;;5029648;28;20088;-64
2023/07/19 03:28:24;;;;;;;10.55;5.22;;;24.80;98.40;;;;;;5029993;28;20040;-65
2023/07/19 03:30:51;;;;;;;9.02;5.47;;;24.70;98.60;;;;;;5024928;28;20029;-66
2023/07/19 03:33:17;;;;;;;11.77;5.50;;;24.70;97.60;;;;;;5027726;28;20037;-64
2023/07/19 03:35:42;;;;;;;10.27;5.27;;;24.80;98.20;;;;;;5031528;28;20029;-66
2023/07/19 03:38:08;;;;;;;10.25;5.65;;;24.80;96.60;;;;;;5033635;28;20338;-70
2023/07/19 03:40:34;;;;;;;6.90;4.78;;;24.90;96.80;;;;;;5031905;28;20053;-69
2023/07/19 03:42:59;;;;;;;11.43;5.30;;;24.70;97.70;;;;;;5025011;28;20033;-65
2023/07/19 03:45:28;;;;;;;13.27;5.28;;;24.60;98.20;;;;;;5031411;28;20409;-65
2023/07/19 03:47:54;;;;;;;6.70;5.00;;;24.50;98.50;;;;;;5036783;28;20116;-66
2023/07/19 03:50:19;;;;;;;7.55;5.15;;;24.50;97.60;;;;;;5026539;28;20551;-66
2023/07/19 03:52:45;;;;;;;7.43;4.95;;;24.60;98.00;;;;;;5026711;28;20060;-65
2023/07/19 03:55:11;;;;;;;11.02;5.53;;;24.70;96.20;;;;;;5030075;28;20061;-65
2023/07/19 03:57:37;;;;;;;9.90;5.13;;;24.80;97.00;;;;;;5028486;28;20028;-65
2023/07/19 04:00:03;;;;;;;10.18;5.57;;;24.70;98.20;;;;;;5031116;28;20434;-70
2023/07/19 04:02:30;;;;;;;11.30;5.28;;;24.60;97.90;;;;;;5029946;28;20045;-65
2023/07/19 04:04:55;;;;;;;13.35;5.78;;;24.50;98.10;;;;;;5031665;28;20069;-66
2023/07/19 04:07:21;;;;;;;9.75;5.32;;;24.40;98.20;;;;;;5029342;28;20049;-67
2023/07/19 04:09:46;;;;;;;11.00;5.07;;;24.40;97.70;;;;;;5023087;28;20026;-66
2023/07/19 04:12:12;;;;;;;10.27;5.43;;;24.40;99.90;;;;;;5029333;28;20455;-65
2023/07/19 04:14:38;;;;;;;9.80;5.80;;;24.30;98.80;;;;;;5034987;28;20445;-65
2023/07/19 04:17:04;;;;;;;9.05;6.13;;;24.30;98.30;;;;;;5030937;28;20044;-65
2023/07/19 04:19:30;;;;;;;10.00;5.75;;;24.20;97.80;;;;;;5026133;28;20279;-65
2023/07/19 04:21:55;;;;;;;8.57;5.63;;;24.20;99.80;;;;;;5033781;28;20041;-66
2023/07/19 04:24:21;;;;;;;8.27;5.13;;;24.10;99.00;;;;;;5026284;28;20028;-64
2023/07/19 04:26:46;;;;;;;7.53;5.23;;;24.00;99.60;;;;;;5030459;28;20040;-65
2023/07/19 04:29:12;;;;;;;7.37;5.23;;;23.90;98.60;;;;;;5031861;28;20021;-65
2023/07/19 04:31:38;;;;;;;10.43;5.60;;;23.90;99.60;;;;;;5021030;28;20276;-64
2023/07/19 04:34:03;;;;;;;9.90;5.37;;;23.80;98.30;;;;;;5027221;28;20087;-68
2023/07/19 04:36:30;;;;;;;12.00;4.90;;;23.80;99.40;;;;;;5035624;28;20028;-66
2023/07/19 04:38:55;;;;;;;8.23;5.35;;;23.70;98.80;;;;;;5021846;28;20057;-67
2023/07/19 04:41:21;;;;;;;7.27;4.77;;;23.70;98.50;;;;;;5027656;28;20065;-67
2023/07/19 04:43:47;;;;;;;9.50;5.20;;;23.70;95.90;;;;;;5030736;28;20033;-69
2023/07/19 04:46:12;;;;;;;9.87;5.03;;;23.70;94.60;;;;;;5031452;28;20033;-67
2023/07/19 04:48:38;;;;;;;8.73;4.63;;;23.80;93.70;;;;;;5028271;28;20288;-65
2023/07/19 04:51:06;;;;;;;7.53;4.70;;;23.70;93.10;;;;;;5023616;28;20091;-68
2023/07/19 04:53:32;;;;;;;7.88;4.15;;;23.70;96.10;;;;;;5025028;28;20033;-66
2023/07/19 04:55:57;;;;;;;7.32;5.25;;;23.70;95.50;;;;;;5030688;28;20028;-64
2023/07/19 04:58:23;;;;;;;10.10;5.07;;;23.80;94.50;;;;;;5030214;28;20509;-65
2023/07/19 05:00:48;;;;;;;10.10;4.67;;;24.00;95.40;;;;;;5025299;28;20796;-64
2023/07/19 05:03:14;;;;;;;6.30;4.47;;;23.80;96.80;;;;;;5023183;28;20504;-65
2023/07/19 05:05:40;;;;;;;8.47;4.53;;;23.80;97.40;;;;;;5027687;28;20806;-67
2023/07/19 05:08:06;;;;;;;11.07;4.73;;;23.80;93.60;;;;;;5027525;28;20026;-68
2023/07/19 05:10:34;;;;;;;12.32;4.32;;;24.00;95.10;;;;;;5030851;28;20026;-64
2023/07/19 05:13:00;;;;;;;9.98;4.28;;;24.10;95.00;;;;;;5024585;28;20076;-65
2023/07/19 05:15:26;;;;;;;9.80;4.68;;;24.40;94.40;;;;;;5030508;28;20087;-65
2023/07/19 05:17:51;;;;;;;9.40;4.80;;;24.70;93.70;;;;;;5026292;28;20624;-66
2023/07/19 05:20:17;;;;;;;11.30;5.00;;;25.00;93.40;;;;;;5034870;28;20036;-66
2023/07/19 05:22:43;;;;;;;16.63;5.22;;;25.60;91.50;;;;;;5030125;28;20044;-65
2023/07/19 05:25:09;;;;;;;13.03;6.30;;;25.70;90.60;;;;;;5028848;28;20390;-66
2023/07/19 05:27:35;;;;;;;;;;;26.00;90.00;;;;;;5029521;28;20034;-66
2023/07/19 05:30:00;;;;;;;10.95;5.07;;;26.10;88.90;;;;;;5028710;28;20319;-66
2023/07/19 05:32:26;;;;;;;12.38;5.28;;;26.30;87.90;;;;;;5030488;28;20044;-65
2023/07/19 05:34:52;;;;;;;16.37;5.40;;;26.80;87.00;;;;;;5028559;28;20064;-65
2023/07/19 05:37:17;;;;;;;10.07;4.47;;;27.50;83.40;;;;;;5031880;28;20021;-66
2023/07/19 05:39:43;;;;;;;10.30;5.20;;;28.10;81.50;;;;;;5030505;28;20291;-65
2023/07/19 05:42:08;;;;;;;15.67;5.87;;;28.00;80.70;;;;;;5025706;28;20402;-65
2023/07/19 05:44:34;;;;;;;12.32;4.80;;;28.60;77.50;;;;;;5031081;28;20315;-65
2023/07/19 05:47:00;;;;;;;12.68;5.13;;;29.20;77.70;;;;;;5028606;28;20040;-66
2023/07/19 05:49:25;;;;;;;9.25;5.30;;;29.90;74.60;;;;;;5030063;28;20029;-65
2023/07/19 05:51:51;;;;;;;14.88;5.03;;;29.80;73.10;;;;;;5026760;28;20452;-64
2023/07/19 05:54:17;;;;;;;7.43;4.90;;;29.80;72.80;;;;;;5030678;28;20021;-67
2023/07/19 05:56:42;;;;;;;14.02;4.95;;;29.70;71.70;;;;;;5023569;28;20543;-67
2023/07/19 05:59:08;;;;;;;7.18;4.10;;;30.50;69.90;;;;;;5029007;28;20021;-64
2023/07/19 06:01:34;;;;;;;6.40;4.50;;;30.60;69.20;;;;;;5022004;28;20069;-69
2023/07/19 06:04:00;;;;;;;10.05;4.82;;;31.20;67.90;;;;;;5032617;28;20056;-64
2023/07/19 06:06:26;;;;;;;6.45;4.40;;;31.30;67.70;;;;;;5033769;28;20496;-65
2023/07/19 06:08:52;;;;;;;6.10;3.88;;;31.50;65.10;;;;;;5028457;28;20839;-64
2023/07/19 06:11:17;;;;;;;6.63;4.18;;;32.00;65.80;;;;;;5028691;28;20049;-64
2023/07/19 06:13:43;;;;;;;7.45;4.70;;;32.10;66.10;;;;;;5036749;28;20110;-65
2023/07/19 06:16:09;;;;;;;9.60;3.70;;;33.00;64.50;;;;;;5017781;28;20030;-65
2023/07/19 06:18:34;;;;;;;8.48;4.38;;;33.60;62.80;;;;;;5028031;28;20025;-64
2023/07/19 06:21:00;;;;;;;23.38;4.85;;;33.80;60.60;;;;;;5034195;28;20501;-65
2023/07/19 06:23:25;;;;;;;;;;;33.70;62.40;;;;;;5028217;28;20037;-64
2023/07/19 06:25:51;;;;;;;8.05;4.28;;;34.20;60.20;;;;;;5031407;28;19913;-64
2023/07/19 06:28:17;;;;;;;;;;;33.10;62.20;;;;;;5026992;28;20033;-63
2023/07/19 06:30:42;;;;;;;366.98;84.40;;;32.20;63.20;;;;;;5030297;28;19916;-64
2023/07/19 06:33:08;;;;;;;;;;;31.90;63.00;;;;;;5026406;28;20036;-63
2023/07/19 06:35:34;;;;;;;164.32;37.78;;;30.80;64.30;;;;;;5026251;28;19924;-64
2023/07/19 06:38:00;;;;;;;;;;;29.20;66.30;;;;;;5027406;28;20026;-65
2023/07/19 06:40:26;;;;;;;20.90;8.27;;;28.90;68.70;;;;;;5033959;28;19920;-65
2023/07/19 06:42:52;;;;;;;;;;;29.40;68.30;;;;;;5033587;28;20172;-64
2023/07/19 06:45:18;;;;;;;52.10;13.75;;;29.30;69.00;;;;;;5031656;28;19992;-65
2023/07/19 06:47:44;;;;;;;;;;;28.80;69.50;;;;;;5029510;28;20116;-64
2023/07/19 06:50:09;;;;;;;56.03;15.70;;;28.90;69.20;;;;;;5031988;28;20434;-66
2023/07/19 06:52:35;;;;;;;21.90;7.60;;;29.10;69.00;;;;;;5031468;28;20497;-67
2023/07/19 06:55:01;;;;;;;104.65;28.83;;;28.80;69.80;;;;;;5028603;28;20034;-65
2023/07/19 06:57:27;;;;;;;51.97;14.00;;;28.60;71.00;;;;;;5028858;28;20025;-64
2023/07/19 06:59:52;;;;;;;45.88;13.70;;;28.80;70.70;;;;;;5033251;28;20033;-65
2023/07/19 07:02:18;;;;;;;42.55;12.40;;;27.70;72.30;;;;;;5030744;28;20561;-63
2023/07/19 07:04:45;;;;;;;30.15;10.10;;;27.40;72.90;;;;;;5030114;28;20057;-66
2023/07/19 07:07:11;;;;;;;41.17;10.68;;;27.30;71.90;;;;;;5036632;28;20028;-63
2023/07/19 07:09:37;;;;;;;38.70;11.55;;;27.20;72.40;;;;;;5034262;28;20110;-66
2023/07/19 07:12:03;;;;;;;;;;;27.60;73.10;;;;;;5029887;28;20026;-68
2023/07/19 07:14:29;;;;;;;20.00;6.65;;;28.00;72.40;;;;;;5032622;28;19916;-68
2023/07/19 07:16:55;;;;;;;8.25;4.90;;;28.40;70.30;;;;;;5032305;28;20397;-65
2023/07/19 07:19:20;;;;;;;20.95;8.05;;;28.60;69.90;;;;;;5032020;28;20033;-64
2023/07/19 07:21:46;;;;;;;22.17;7.78;;;28.70;70.40;;;;;;5025187;28;20140;-65
2023/07/19 07:24:11;;;;;;;13.32;5.38;;;27.80;70.60;;;;;;5031453;28;20199;-65
2023/07/19 07:26:37;;;;;;;12.95;6.00;;;28.10;70.70;;;;;;5026607;28;20029;-63
2023/07/19 07:29:04;;;;;;;15.95;6.30;;;28.10;70.90;;;;;;5031748;28;20103;-63
2023/07/19 07:31:31;;;;;;;12.30;6.50;;;27.70;71.40;;;;;;5028923;28;20036;-64
2023/07/19 07:33:58;;;;;;;13.45;6.40;;;27.90;71.90;;;;;;5030854;28;20034;-64
2023/07/19 07:36:24;;;;;;;;;;;27.90;71.60;;;;;;5027649;28;20049;-63
2023/07/19 07:38:50;;;;;;;11.25;5.80;;;28.10;71.30;;;;;;5030281;28;19912;-64
2023/07/19 07:41:16;;;;;;;10.65;4.47;;;27.80;70.60;;;;;;5027169;28;20033;-64
2023/07/19 07:43:42;;;;;;;13.98;5.20;;;28.00;71.10;;;;;;5028950;28;20045;-65
2023/07/19 07:46:07;;;;;;;10.50;4.82;;;27.50;71.40;;;;;;5030494;28;20021;-66
2023/07/19 07:48:33;;;;;;;12.18;5.20;;;27.70;71.10;;;;;;5032247;28;20094;-66
2023/07/19 07:50:58;;;;;;;12.13;5.45;;;27.80;70.70;;;;;;5021879;28;20029;-65
2023/07/19 07:53:24;;;;;;;11.02;4.85;;;28.00;70.00;;;;;;5027972;28;20044;-63
2023/07/19 07:55:50;;;;;;;10.82;5.35;;;27.80;70.70;;;;;;5026975;28;20069;-64
2023/07/19 07:58:16;;;;;;;9.38;5.32;;;28.10;70.50;;;;;;5030304;28;20508;-65
2023/07/19 08:00:42;;;;;;;10.82;4.72;;;28.00;70.80;;;;;;5030215;28;20034;-63
2023/07/19 08:03:09;;;;;;;7.63;4.68;;;27.90;71.00;;;;;;5030108;28;20034;-64
2023/07/19 08:05:34;;;;;;;14.65;4.80;;;28.10;69.20;;;;;;5034776;28;20040;-64
2023/07/19 08:08:01;;;;;;;5.53;4.43;;;28.00;70.10;;;;;;5031867;28;20165;-63
2023/07/19 08:10:27;;;;;;;8.02;4.35;;;28.20;70.10;;;;;;5029671;28;20508;-64
2023/07/19 08:12:53;;;;;;;8.43;4.90;;;28.60;69.60;;;;;;5035133;28;20061;-64
2023/07/19 08:15:19;;;;;;;6.35;4.00;;;28.80;69.40;;;;;;5032130;28;20052;-64
2023/07/19 08:17:44;;;;;;;7.80;4.35;;;29.70;66.90;;;;;;5023202;28;20037;-64
2023/07/19 08:20:10;;;;;;;6.72;4.78;;;29.20;66.80;;;;;;5022623;28;20036;-64
2023/07/19 08:22:37;;;;;;;;;;;29.40;67.40;;;;;;5028759;28;20036;-65
2023/07/19 08:25:04;;;;;;;9.60;5.05;;;29.80;67.60;;;;;;5028569;28;19931;-65
2023/07/19 08:27:29;;;;;;;;;;;30.50;65.10;;;;;;5026735;28;20112;-65
2023/07/19 08:29:55;;;;;;;9.93;5.20;;;30.80;64.00;;;;;;5028937;28;20543;-69
2023/07/19 08:32:21;;;;;;;7.22;4.22;;;31.80;64.20;;;;;;5028091;28;20147;-66
2023/07/19 08:34:46;;;;;;;7.68;4.20;;;35.30;58.60;;;;;;5021642;28;20072;-66
2023/07/19 08:37:12;;;;;;;12.10;4.30;;;37.20;55.70;;;;;;5026295;28;20024;-65
2023/07/19 08:39:37;;;;;;;10.05;4.25;;;36.10;53.50;;;;;;5025234;28;20417;-68
2023/07/19 08:42:04;;;;;;;;;;;36.00;56.00;;;;;;5018597;28;20030;-66
2023/07/19 08:44:30;;;;;;;8.57;4.28;;;36.70;54.40;;;;;;5024858;28;19905;-69
2023/07/19 08:46:55;;;;;;;;;;;37.00;52.90;;;;;;5032175;28;20048;-66
2023/07/19 08:49:21;;;;;;;8.63;5.38;;;35.60;53.70;;;;;;5033028;28;19909;-65
2023/07/19 08:51:47;;;;;;;5.05;3.70;;;35.10;54.50;;;;;;5033228;28;20782;-64
2023/07/19 08:54:13;;;;;;;6.95;4.00;;;33.50;57.40;;;;;;5033196;28;20032;-65
2023/07/19 08:56:41;;;;;;;7.90;4.20;;;32.30;58.60;;;;;;5036418;28;20374;-65
2023/07/19 08:59:07;;;;;;;7.80;4.20;;;32.70;59.60;;;;;;5033458;28;20029;-69
2023/07/19 09:01:33;;;;;;;;;;;32.60;59.50;;;;;;5024076;28;20463;-64
2023/07/19 09:03:59;;;;;;;6.13;4.00;;;34.20;56.70;;;;;;5027064;28;19920;-66
2023/07/19 09:06:25;;;;;;;;;;;34.50;55.20;;;;;;5032917;28;20029;-64
2023/07/19 09:08:51;;;;;;;6.53;3.78;;;36.50;54.40;;;;;;5029884;28;20407;-65
2023/07/19 09:11:21;;;;;;;8.68;3.90;;;38.70;50.80;;;;;;5031138;28;20025;-65
2023/07/19 09:13:57;;;;;;;8.32;3.65;;;40.20;49.50;;;;;;5034295;28;20030;-65
2023/07/19 09:16:31;;;;;;;5.93;3.97;;;40.00;47.90;;;;;;5035908;28;20033;-64
2023/07/19 09:18:59;;;;;;;8.93;4.07;;;40.80;47.30;;;;;;5027404;28;20029;-65
2023/07/19 09:21:42;;;;;;;4.90;3.45;;;41.10;46.70;;;;;;5029443;28;20041;-64
2023/07/19 09:24:09;;;;;;;6.07;3.58;;;41.70;47.00;;;;;;5025570;28;20045;-65
2023/07/19 09:26:53;;;;;;;9.05;3.38;;;42.60;45.60;;;;;;5026573;28;20057;-66
2023/07/19 09:29:20;;;;;;;7.15;3.70;;;42.40;45.60;;;;;;5031585;28;20029;-64
2023/07/19 09:32:00;;;;;;;5.60;3.42;;;41.70;45.50;;;;;;5027613;28;20424;-65
2023/07/19 09:34:28;;;;;;;6.03;3.30;;;42.60;45.50;;;;;;5028447;28;20036;-67
2023/07/19 09:36:54;;;;;;;5.03;3.50;;;44.00;45.60;;;;;;5029277;28;20396;-66
2023/07/19 09:39:20;;;;;;;4.50;3.40;;;43.60;44.70;;;;;;5020206;28;20377;-66
2023/07/19 09:41:46;;;;;;;4.55;3.20;;;43.40;45.30;;;;;;5027846;28;20084;-65
2023/07/19 09:44:15;;;;;;;5.28;3.40;;;43.80;44.90;;;;;;5031134;28;20033;-64
2023/07/19 09:46:42;;;;;;;6.13;4.38;;;43.70;44.50;;;;;;5028805;28;20037;-65
2023/07/19 09:49:08;;;;;;;6.57;3.50;;;44.30;44.20;;;;;;5029298;28;20504;-65
2023/07/19 09:51:35;;;;;;;5.82;3.53;;;44.20;45.80;;;;;;5028800;28;20104;-65
2023/07/19 09:54:06;;;;;;;5.82;3.85;;;44.50;44.70;;;;;;5027874;28;20472;-66
2023/07/19 09:56:32;;;;;;;7.72;3.78;;;43.80;44.80;;;;;;5024912;28;20030;-65
2023/07/19 09:59:00;;;;;;;6.93;3.33;;;42.30;44.30;;;;;;5028220;28;20083;-65
2023/07/19 10:01:26;;;;;;;4.90;3.70;;;43.70;44.90;;;;;;5033374;28;20029;-65
2023/07/19 10:03:51;;;;;;;7.80;4.03;;;44.30;43.00;;;;;;5027488;28;20025;-64
2023/07/19 10:06:17;;;;;;;6.13;3.40;;;44.70;44.10;;;;;;5025839;28;20017;-65
2023/07/19 10:08:43;;;;;;;6.40;3.83;;;42.00;45.10;;;;;;5021975;28;20048;-69
2023/07/19 10:11:21;;;;;;;8.30;3.50;;;42.30;45.80;;;;;;5028578;28;20100;-68
2023/07/19 10:13:56;;;;;;;6.47;3.45;;;44.70;44.90;;;;;;5023699;28;20584;-66
2023/07/19 10:16:33;;;;;;;10.55;3.38;;;43.50;45.60;;;;;;5025972;28;20032;-72
2023/07/19 10:19:12;;;;;;;5.93;3.50;;;42.70;44.50;;;;;;5026421;28;20029;-69
2023/07/19 10:21:43;;;;;;;5.43;3.53;;;42.70;45.80;;;;;;5028865;28;20029;-70
2023/07/19 10:24:08;;;;;;;5.88;3.80;;;44.70;45.00;;;;;;5029830;28;20036;-72
2023/07/19 10:26:38;;;;;;;5.40;4.07;;;44.70;43.80;;;;;;5026753;28;20489;-68
2023/07/19 10:29:04;;;;;;;8.18;3.80;;;44.60;44.60;;;;;;5022476;28;20610;-73
2023/07/19 10:31:31;;;;;;;6.20;4.20;;;43.80;45.00;;;;;;5024844;28;20119;-75
2023/07/19 10:33:57;;;;;;;6.38;3.40;;;40.70;47.30;;;;;;5023235;28;20022;-70
2023/07/19 10:36:23;;;;;;;11.00;3.75;;;38.90;49.20;;;;;;5025548;28;20079;-68
2023/07/19 10:38:49;;;;;;;9.20;3.63;;;37.10;48.90;;;;;;5019184;28;20508;-70
2023/07/19 10:41:15;;;;;;;9.40;3.55;;;35.40;51.60;;;;;;5022719;28;20407;-68
2023/07/19 10:43:41;;;;;;;7.18;3.45;;;35.10;53.60;;;;;;5032658;28;20405;-75
2023/07/19 10:46:08;;;;;;;6.68;3.60;;;35.30;55.20;;;;;;5029148;28;20033;-67
2023/07/19 10:48:38;;;;;;;7.22;3.33;;;35.40;55.80;;;;;;5030918;28;20132;-73
2023/07/19 10:51:05;;;;;;;9.38;4.53;;;35.10;56.10;;;;;;5031407;28;20441;-75
2023/07/19 10:53:41;;;;;;;8.77;3.97;;;35.10;56.00;;;;;;5027474;28;20033;-76
2023/07/19 10:56:07;;;;;;;14.10;4.13;;;34.70;57.00;;;;;;5042044;28;20056;-75
2023/07/19 10:58:32;;;;;;;8.00;4.30;;;34.60;55.50;;;;;;5023059;28;20072;-73
2023/07/19 11:00:58;;;;;;;10.15;4.75;;;34.50;57.80;;;;;;5030295;28;20079;-70
2023/07/19 11:03:26;;;;;;;9.30;4.05;;;34.70;57.30;;;;;;5027321;28;20041;-71
2023/07/19 11:05:53;;;;;;;14.65;4.25;;;34.50;57.00;;;;;;5030334;28;20558;-71
2023/07/19 11:08:26;;;;;;;4.97;3.85;;;33.90;57.50;;;;;;5030714;28;20053;-72
2023/07/19 11:10:54;;;;;;;11.18;4.57;;;34.00;60.70;;;;;;5029267;28;20033;-72
2023/07/19 11:13:22;;;;;;;12.25;4.65;;;33.60;56.40;;;;;;5035262;28;20025;-69
2023/07/19 11:15:50;;;;;;;13.35;4.35;;;33.80;57.30;;;;;;5044480;28;20057;-73
2023/07/19 11:18:30;;;;;;;7.93;4.35;;;33.80;59.50;;;;;;5033954;28;20041;-73
2023/07/19 11:20:59;;;;;;;11.95;5.72;;;33.90;60.00;;;;;;5033540;28;20033;-72
2023/07/19 11:23:25;;;;;;;8.98;5.07;;;33.70;58.00;;;;;;5028525;28;20051;-73
2023/07/19 11:25:51;;;;;;;8.68;4.55;;;33.50;58.30;;;;;;5029391;28;20021;-70
2023/07/19 11:28:35;;;;;;;;;;;33.90;58.00;;;;;;5031846;28;20031;-72
2023/07/19 11:31:02;;;;;;;12.63;5.13;;;34.30;57.10;;;;;;5039326;28;19917;-71
2023/07/19 11:33:28;;;;;;;7.93;4.53;;;33.40;57.30;;;;;;5032110;28;20134;-73
2023/07/19 11:35:54;;;;;;;;;;;34.00;59.40;;;;;;5034386;28;20100;-73
2023/07/19 11:38:19;;;;;;;8.98;4.65;;;34.00;60.10;;;;;;5033247;28;20011;-74
2023/07/19 11:40:45;;;;;;;;;;;34.00;59.90;;;;;;5030026;28;20060;-72
2023/07/19 11:43:10;;;;;;;6.20;4.57;;;34.00;58.60;;;;;;5031924;28;19921;-71
2023/07/19 11:45:36;;;;;;;;;;;34.00;60.60;;;;;;5035225;28;20230;-72
2023/07/19 11:48:03;;;;;;;10.70;4.53;;;33.80;58.60;;;;;;5027831;28;19920;-73
2023/07/19 11:50:29;;;;;;;11.63;4.25;;;33.80;58.00;;;;;;5029404;28;20037;-73
2023/07/19 11:52:59;;;;;;;;;;;32.60;62.40;;;;;;5033890;28;20037;-73
2023/07/19 11:55:25;;;;;;;11.40;5.80;;;34.10;60.60;;;;;;5031230;28;19917;-73
2023/07/19 11:57:53;;;;;;;6.88;4.68;;;34.70;57.90;;;;;;5027500;28;20033;-72
2023/07/19 12:00:20;;;;;;;7.70;4.95;;;34.50;57.70;;;;;;5032935;28;20036;-74
2023/07/19 12:02:48;;;;;;;10.18;5.38;;;34.70;60.30;;;;;;5027455;28;20033;-73
2023/07/19 12:05:17;;;;;;;6.20;4.97;;;34.90;58.80;;;;;;5064869;28;20116;-74
2023/07/19 12:07:43;;;;;;;8.40;4.72;;;34.80;58.10;;;;;;5031757;28;20508;-74
2023/07/19 12:10:09;;;;;;;;;;;34.90;58.70;;;;;;5033108;28;20035;-74
2023/07/19 12:12:35;;;;;;;13.25;6.35;;;34.70;58.80;;;;;;5026982;28;19916;-73
2023/07/19 12:15:06;;;;;;;12.15;5.60;;;34.70;59.30;;;;;;5029623;28;20048;-72
2023/07/19 12:17:32;;;;;;;10.95;5.30;;;34.30;58.70;;;;;;5032519;28;20036;-73
2023/07/19 12:19:59;;;;;;;8.68;5.55;;;34.40;57.00;;;;;;5027569;28;20519;-72
2023/07/19 12:22:27;;;;;;;7.15;4.28;;;33.80;59.30;;;;;;5027669;28;20412;-72
2023/07/19 12:24:52;;;;;;;8.98;5.13;;;33.70;61.20;;;;;;5026470;28;20026;-72
2023/07/19 12:27:18;;;;;;;;;;;33.70;61.90;;;;;;5021182;28;20048;-74
2023/07/19 12:29:44;;;;;;;6.07;4.75;;;33.50;61.70;;;;;;5025942;28;19967;-73
2023/07/19 12:32:10;;;;;;;10.98;5.80;;;33.70;61.10;;;;;;5029230;28;20030;-72
2023/07/19 12:34:36;;;;;;;;;;;34.10;58.20;;;;;;5019831;28;20037;-72
2023/07/19 12:37:01;;;;;;;8.88;4.40;;;34.50;59.10;;;;;;5017718;28;20380;-67
2023/07/19 12:39:27;;;;;;;;;;;34.70;59.40;;;;;;5028156;28;20048;-71
2023/07/19 12:41:52;;;;;;;6.15;4.60;;;34.40;59.10;;;;;;5033068;28;19965;-69
2023/07/19 12:44:22;;;;;;;10.45;4.63;;;34.30;60.80;;;;;;5036914;28;20037;-71